createdAt,value
2019-03-18T00:01:25.889Z,98395.56
2019-03-18T00:06:33.410Z,98404.44
2019-03-18T00:11:40.341Z,98400.74
2019-03-18T00:16:47.803Z,98408.02
2019-03-18T00:21:54.437Z,98403.62
2019-03-18T00:27:03.191Z,98414.12
2019-03-18T00:32:09.711Z,98414.12
2019-03-18T00:37:16.096Z,98433.58
2019-03-18T00:42:22.489Z,98440.70
2019-03-18T00:47:31.766Z,98436.08
2019-03-18T00:52:38.098Z,98434.14
2019-03-18T00:57:45.049Z,98449.35
2019-03-18T01:02:51.854Z,98443.84
2019-03-18T01:08:02.537Z,98446.21
2019-03-18T01:13:12.603Z,98433.66
2019-03-18T01:18:22.985Z,98430.06
2019-03-18T01:23:29.096Z,98423.61
2019-03-18T01:28:38.861Z,98433.80
2019-03-18T01:33:46.110Z,98437.08
2019-03-18T01:38:54.123Z,98430.89
2019-03-18T01:44:04.557Z,98420.04
2019-03-18T01:49:11.832Z,98428.55
2019-03-18T01:54:18.231Z,98426.64
2019-03-18T01:59:32.959Z,98439.53
2019-03-18T02:04:39.103Z,98450.31
2019-03-18T02:09:46.093Z,98433.80
2019-03-18T02:14:53.004Z,98430.39
2019-03-18T02:20:03.781Z,98465.95
2019-03-18T02:25:15.362Z,98464.41
2019-03-18T02:30:22.421Z,98461.70
2019-03-18T02:35:29.240Z,98464.50
2019-03-18T02:40:37.326Z,98470.45
2019-03-18T02:45:43.835Z,98495.30
2019-03-18T02:50:54.658Z,98495.30
2019-03-18T02:56:01.515Z,98502.62
2019-03-18T03:01:12.081Z,98504.87
2019-03-18T03:06:18.225Z,98515.01
2019-03-18T03:11:27.644Z,98508.58
2019-03-18T03:16:37.924Z,98519.76
2019-03-18T03:21:45.649Z,98517.68
2019-03-18T03:26:52.546Z,98536.55
2019-03-18T03:31:59.918Z,98553.37
2019-03-18T03:37:09.333Z,98556.56
2019-03-18T03:42:19.388Z,98560.67
2019-03-18T03:47:27.017Z,98558.46
2019-03-18T03:52:35.906Z,98562.16
2019-03-18T03:57:42.270Z,98565.81
2019-03-18T04:02:49.913Z,98572.47
2019-03-18T04:07:59.821Z,98568.48
2019-03-18T04:13:09.168Z,98576.45
2019-03-18T04:18:18.319Z,98596.34
2019-03-18T04:23:25.900Z,98596.34
2019-03-18T04:28:34.509Z,98602.66
2019-03-18T04:33:41.672Z,98616.23
2019-03-18T04:38:48.230Z,98609.44
2019-03-18T04:43:54.911Z,98642.90
2019-03-18T04:49:05.141Z,98640.82
2019-03-18T04:54:12.672Z,98627.86
2019-03-18T04:59:20.220Z,98639.51
2019-03-18T05:04:26.615Z,98638.17
2019-03-18T05:09:33.549Z,98652.39
2019-03-18T05:14:44.266Z,98666.09
2019-03-18T05:19:52.332Z,98659.97
2019-03-18T05:24:59.637Z,98658.64
2019-03-18T05:30:09.623Z,98665.94
2019-03-18T05:35:16.919Z,98665.94
2019-03-18T05:40:23.836Z,98653.43
2019-03-18T05:45:31.716Z,98652.02
2019-03-18T05:50:38.918Z,98644.61
2019-03-18T05:55:44.933Z,98658.20
2019-03-18T06:00:52.858Z,98669.67
2019-03-18T06:06:05.024Z,98675.08
2019-03-18T06:11:17.929Z,98664.34
2019-03-18T06:16:25.701Z,98665.34
2019-03-18T06:21:33.845Z,98670.90
2019-03-18T06:26:41.015Z,98668.39
2019-03-18T06:31:47.959Z,98679.38
2019-03-18T06:36:57.323Z,98668.28
2019-03-18T06:42:08.128Z,98675.66
2019-03-18T06:47:14.781Z,98672.36
2019-03-18T06:52:21.700Z,98672.84
2019-03-18T06:57:29.257Z,98690.60
2019-03-18T07:02:36.240Z,98698.56
2019-03-18T07:07:43.168Z,98693.19
2019-03-18T07:12:50.419Z,98687.84
2019-03-18T07:17:58.238Z,98702.79
2019-03-18T07:23:09.112Z,98707.70
2019-03-18T07:28:18.107Z,98697.67
2019-03-18T07:33:25.218Z,98698.68
2019-03-18T07:38:32.143Z,98703.23
2019-03-18T07:43:39.462Z,98707.24
2019-03-18T07:48:46.758Z,98715.83
2019-03-18T07:53:53.710Z,98704.14
2019-03-18T07:58:59.988Z,98721.14
2019-03-18T08:04:08.236Z,98721.77
2019-03-18T08:09:15.440Z,98723.56
2019-03-18T09:04:10.455Z,98747.52
2019-03-18T09:09:19.346Z,98760.30
2019-03-18T09:14:26.378Z,98767.94
2019-03-18T09:19:34.941Z,98767.92
2019-03-18T09:24:44.024Z,98775.66
2019-03-18T09:29:59.052Z,98787.66
2019-03-18T09:35:10.021Z,98793.30
2019-03-18T09:40:25.768Z,98803.48
2019-03-18T09:45:33.717Z,98814.60
2019-03-18T09:50:43.067Z,98823.95
2019-03-18T09:55:50.236Z,98832.25
2019-03-18T10:00:56.319Z,98832.59
2019-03-18T10:06:07.980Z,98836.77
2019-03-18T10:11:18.931Z,98855.98
2019-03-18T10:16:35.375Z,98858.92
2019-03-18T10:21:47.383Z,98865.25
2019-03-18T10:26:52.976Z,98857.83
2019-03-18T10:32:02.200Z,98877.58
2019-03-18T10:37:10.691Z,98879.02
2019-03-18T10:42:19.920Z,98878.54
2019-03-18T10:47:33.901Z,98879.58
2019-03-18T10:52:41.323Z,98874.73
2019-03-18T10:57:51.033Z,98880.81
2019-03-18T11:03:05.096Z,98878.27
2019-03-18T11:08:09.882Z,98885.12
2019-03-18T11:13:23.155Z,98896.92
2019-03-18T11:18:32.368Z,98903.23
2019-03-18T11:23:42.556Z,98918.74
2019-03-18T11:28:48.801Z,98908.11
2019-03-18T11:34:05.271Z,98919.27
2019-03-18T11:39:10.790Z,98902.03
2019-03-18T11:44:21.388Z,98906.34
2019-03-18T11:49:39.574Z,98905.67
2019-03-18T11:54:40.880Z,98899.54
2019-03-18T11:59:49.168Z,98900.59
2019-03-18T12:04:57.548Z,98894.42
2019-03-18T12:10:04.963Z,98900.56
2019-03-18T12:15:15.781Z,98901.30
2019-03-18T12:20:25.507Z,98894.33
2019-03-18T12:25:33.558Z,98899.00
2019-03-18T12:30:40.645Z,98936.94
2019-03-18T12:35:47.646Z,98932.28
2019-03-18T12:40:54.196Z,98927.05
2019-03-18T12:46:04.195Z,98930.70
2019-03-18T12:51:11.604Z,98914.80
2019-03-18T12:56:18.959Z,98920.05
2019-03-18T13:01:25.725Z,98901.33
2019-03-18T13:06:35.439Z,98899.44
2019-03-18T13:11:42.688Z,98909.13
2019-03-18T13:16:48.792Z,98903.34
2019-03-18T13:22:00.177Z,98907.77
2019-03-18T13:27:08.927Z,98898.02
2019-03-18T13:32:16.391Z,98943.73
2019-03-18T13:37:30.468Z,98966.84
2019-03-18T13:42:34.819Z,98978.61
2019-03-18T13:47:47.991Z,98940.22
2019-03-18T13:52:52.148Z,98938.80
2019-03-18T13:57:58.548Z,98934.91
2019-03-18T14:03:07.688Z,98955.43
2019-03-18T14:08:14.905Z,98955.80
2019-03-18T14:13:25.557Z,98963.17
2019-03-18T14:18:32.480Z,98958.27
2019-03-18T14:23:43.818Z,98965.83
2019-03-18T14:28:52.653Z,98967.02
2019-03-18T14:34:00.077Z,98994.41
2019-03-18T14:39:08.642Z,98989.69
2019-03-18T14:44:21.040Z,98996.91
2019-03-18T14:49:29.553Z,98979.84
2019-03-18T14:54:37.182Z,98990.00
2019-03-18T14:59:47.346Z,98983.73
2019-03-18T15:04:54.032Z,98999.59
2019-03-18T15:10:00.447Z,99008.13
2019-03-18T15:15:11.528Z,99009.66
2019-03-18T15:20:23.914Z,99001.05
2019-03-18T15:25:43.151Z,99012.52
2019-03-18T15:30:56.126Z,99015.64
2019-03-18T15:36:09.931Z,99021.64
2019-03-18T15:41:26.521Z,99019.30
2019-03-18T15:46:29.911Z,99021.34
2019-03-18T15:51:40.983Z,99012.52
2019-03-18T15:56:48.637Z,99016.66
2019-03-18T16:01:56.344Z,99009.59
2019-03-18T16:07:13.624Z,99025.14
2019-03-18T16:12:23.448Z,99021.48
2019-03-18T16:17:31.593Z,99034.22
2019-03-18T16:22:39.776Z,99044.44
2019-03-18T16:27:46.781Z,99055.76
2019-03-18T16:33:05.979Z,99060.65
2019-03-18T16:38:12.027Z,99061.27
2019-03-18T16:43:20.049Z,99059.78
2019-03-18T16:48:28.917Z,99064.11
2019-03-18T16:53:39.269Z,99072.92
2019-03-18T16:58:48.102Z,99078.66
2019-03-18T17:03:58.211Z,99099.77
2019-03-18T17:09:09.282Z,99096.53
2019-03-18T17:14:26.122Z,99103.64
2019-03-18T17:19:36.011Z,99116.78
2019-03-18T17:24:44.534Z,99122.88
2019-03-18T17:29:52.042Z,99126.94
2019-03-18T17:35:01.542Z,99134.38
2019-03-18T17:40:18.275Z,99141.00
2019-03-18T17:45:24.937Z,99149.48
2019-03-18T17:50:32.157Z,99160.22
2019-03-18T17:55:46.341Z,99165.97
2019-03-18T18:01:10.581Z,99179.83
2019-03-18T18:06:19.624Z,99187.75
2019-03-18T18:11:26.242Z,99199.56
2019-03-18T18:21:49.134Z,99199.94
2019-03-18T18:26:57.287Z,99204.12
2019-03-18T18:32:05.604Z,99212.80
2019-03-18T18:37:18.713Z,99209.00
2019-03-18T18:42:26.421Z,99221.81
2019-03-18T18:47:34.373Z,99237.75
2019-03-18T18:52:48.746Z,99253.33
2019-03-18T18:58:06.857Z,99253.33
2019-03-18T19:03:17.697Z,99255.44
2019-03-18T19:08:30.994Z,99249.27
2019-03-18T19:13:37.698Z,99264.52
2019-03-18T19:18:52.023Z,99276.61
2019-03-18T19:24:00.972Z,99286.75
2019-03-18T19:29:09.452Z,99301.53
2019-03-18T19:34:22.582Z,99301.53
2019-03-18T19:39:35.223Z,99311.44
2019-03-18T19:44:45.591Z,99323.94
2019-03-18T19:49:59.983Z,99327.17
2019-03-18T20:01:24.262Z,99334.89
2019-03-18T20:06:32.350Z,99347.38
2019-03-18T20:11:44.914Z,99358.57
2019-03-18T20:16:57.781Z,99360.09
2019-03-18T20:22:04.281Z,99364.86
2019-03-18T20:27:13.879Z,99372.75
2019-03-18T20:32:24.104Z,99376.18
2019-03-18T20:37:36.909Z,99386.67
2019-03-18T20:42:45.167Z,99386.67
2019-03-18T20:47:53.131Z,99402.31
2019-03-18T20:53:03.920Z,99402.31
2019-03-18T20:58:13.165Z,99404.03
2019-03-18T21:03:20.457Z,99409.70
2019-03-18T21:08:32.146Z,99410.31
2019-03-18T21:13:44.924Z,99410.31
2019-03-18T21:18:56.064Z,99425.96
2019-03-18T21:24:03.962Z,99429.16
2019-03-18T21:29:10.520Z,99434.27
2019-03-18T21:34:16.699Z,99438.98
2019-03-18T21:39:25.680Z,99437.31
2019-03-18T21:44:34.835Z,99440.31
2019-03-18T21:49:51.631Z,99460.35
2019-03-18T21:55:25.721Z,99460.35
2019-03-18T22:00:33.277Z,99460.96
2019-03-18T22:05:40.532Z,99463.02
2019-03-18T22:10:52.663Z,99473.23
2019-03-18T22:16:02.852Z,99476.61
2019-03-18T22:21:09.930Z,99464.55
2019-03-18T22:26:19.791Z,99464.55
2019-03-18T22:31:27.846Z,99482.81
2019-03-18T22:36:36.095Z,99486.05
2019-03-18T22:41:45.252Z,99503.41
2019-03-18T22:46:52.615Z,99504.92
2019-03-18T22:51:59.094Z,99504.26
2019-03-18T22:57:05.274Z,99507.02
2019-03-18T23:02:13.354Z,99511.05
2019-03-18T23:07:19.484Z,99506.69
2019-03-18T23:12:28.335Z,99511.75
2019-03-18T23:17:38.941Z,99513.87
2019-03-18T23:22:46.331Z,99522.05
2019-03-18T23:27:53.380Z,99528.20
2019-03-18T23:33:00.150Z,99526.55
2019-03-18T23:38:07.244Z,99536.66
2019-03-18T23:43:15.186Z,99536.66
2019-03-18T23:48:47.409Z,99549.81
2019-03-18T23:53:57.561Z,99539.72
2019-03-18T23:59:08.313Z,99539.72
